createdAt,value
2017-10-30T00:00:16.533Z,96.0
2017-10-30T00:01:18.142Z,97.0
2017-10-30T00:02:19.749Z,96.8
2017-10-30T00:03:21.360Z,97.4
2017-10-30T00:04:22.969Z,96.3
2017-10-30T00:05:24.575Z,96.5
2017-10-30T00:06:26.185Z,96.5
2017-10-30T00:07:27.794Z,96.0
2017-10-30T00:08:29.407Z,95.8
2017-10-30T00:09:31.022Z,95.8
2017-10-30T00:10:32.634Z,95.6
2017-10-30T00:11:34.244Z,96.3
2017-10-30T00:12:35.856Z,96.6
2017-10-30T00:13:37.466Z,95.8
2017-10-30T00:14:39.074Z,95.9
2017-10-30T00:15:40.685Z,95.6
2017-10-30T00:16:42.294Z,95.6
2017-10-30T00:17:43.902Z,95.8
2017-10-30T00:18:45.509Z,94.9
2017-10-30T00:19:47.117Z,95.3
2017-10-30T00:20:48.731Z,95.1
2017-10-30T00:21:50.336Z,94.4
2017-10-30T00:22:51.949Z,94.9
2017-10-30T00:23:53.556Z,95.5
2017-10-30T00:24:55.173Z,94.4
2017-10-30T00:25:56.781Z,94.1
2017-10-30T00:26:58.397Z,94.5
2017-10-30T00:28:00.008Z,95.0
2017-10-30T00:29:01.611Z,94.8
2017-10-30T00:30:03.219Z,94.6
2017-10-30T00:31:04.828Z,95.3
2017-10-30T00:32:06.440Z,95.6
2017-10-30T00:33:08.046Z,95.8
2017-10-30T00:34:09.653Z,95.0
2017-10-30T00:35:11.262Z,94.4
2017-10-30T00:36:12.869Z,94.3
2017-10-30T00:37:14.481Z,94.1
2017-10-30T00:38:16.087Z,94.7
2017-10-30T00:39:17.701Z,94.3
2017-10-30T00:40:19.311Z,94.5
2017-10-30T00:41:20.921Z,94.1
2017-10-30T00:42:22.537Z,94.5
2017-10-30T00:43:24.145Z,94.1
2017-10-30T00:44:25.751Z,93.9
2017-10-30T00:45:27.361Z,94.6
2017-10-30T00:46:28.972Z,94.2
2017-10-30T00:47:30.581Z,94.4
2017-10-30T00:48:32.194Z,94.2
2017-10-30T00:49:33.800Z,94.0
2017-10-30T00:50:35.409Z,94.3
2017-10-30T00:51:37.019Z,94.1
2017-10-30T00:52:38.635Z,94.5
2017-10-30T00:53:40.243Z,94.3
2017-10-30T00:54:41.850Z,95.1
2017-10-30T00:55:43.461Z,95.5
2017-10-30T00:56:45.074Z,95.9
2017-10-30T00:57:46.682Z,96.1
2017-10-30T00:58:48.293Z,96.8
2017-10-30T00:59:49.905Z,97.6
2017-10-30T01:00:51.517Z,96.9
2017-10-30T01:01:53.123Z,96.5
2017-10-30T01:02:54.726Z,96.1
2017-10-30T01:03:56.337Z,95.8
2017-10-30T01:04:57.949Z,96.2
2017-10-30T01:05:59.559Z,96.5
2017-10-30T01:07:01.170Z,96.3
2017-10-30T01:08:02.781Z,96.3
2017-10-30T01:09:04.390Z,95.4
2017-10-30T01:10:06.001Z,95.9
2017-10-30T01:11:07.611Z,95.5
2017-10-30T01:12:09.221Z,95.6
2017-10-30T01:13:10.832Z,95.8
2017-10-30T01:14:12.445Z,95.7
2017-10-30T01:15:14.053Z,97.0
2017-10-30T01:16:15.661Z,96.7
2017-10-30T01:17:17.279Z,96.9
2017-10-30T01:18:18.883Z,97.0
2017-10-30T01:19:20.494Z,96.7
2017-10-30T01:20:22.104Z,97.0
2017-10-30T01:21:23.719Z,96.1
2017-10-30T01:22:25.328Z,96.3
2017-10-30T01:23:26.940Z,96.0
2017-10-30T01:24:28.548Z,96.8
2017-10-30T01:25:30.159Z,96.0
2017-10-30T01:26:31.767Z,95.6
2017-10-30T01:27:33.382Z,96.5
2017-10-30T01:28:34.985Z,96.1
2017-10-30T01:29:36.597Z,96.8
2017-10-30T01:30:38.203Z,97.6
2017-10-30T01:31:39.820Z,97.3
2017-10-30T01:32:41.421Z,97.2
2017-10-30T01:33:43.031Z,96.8
2017-10-30T01:34:44.640Z,97.2
2017-10-30T01:35:46.249Z,98.1
2017-10-30T01:36:47.857Z,98.4
2017-10-30T01:37:49.465Z,99.5
2017-10-30T01:38:51.076Z,99.2
2017-10-30T01:39:52.686Z,98.4
2017-10-30T01:40:54.298Z,98.0
2017-10-30T01:41:55.908Z,98.3
2017-10-30T01:42:57.518Z,98.9
2017-10-30T01:43:59.132Z,97.2
2017-10-30T01:45:00.739Z,96.9
2017-10-30T01:46:02.347Z,97.3
2017-10-30T01:47:03.957Z,97.1
2017-10-30T01:48:05.572Z,96.3
2017-10-30T01:49:07.181Z,96.6
2017-10-30T01:50:08.793Z,96.1
2017-10-30T01:51:10.403Z,96.0
2017-10-30T01:52:12.014Z,95.8
2017-10-30T01:53:13.625Z,96.2
2017-10-30T01:54:15.238Z,95.6
2017-10-30T01:55:16.849Z,95.6
2017-10-30T01:56:18.458Z,95.5
2017-10-30T01:57:20.072Z,95.6
2017-10-30T01:58:21.682Z,95.3
2017-10-30T01:59:23.292Z,95.2
2017-10-30T02:00:24.900Z,96.2
2017-10-30T02:01:26.510Z,95.5
2017-10-30T02:02:28.120Z,94.8
2017-10-30T02:03:29.732Z,95.5
2017-10-30T02:04:31.340Z,95.3
2017-10-30T02:05:32.953Z,94.9
2017-10-30T02:06:34.560Z,95.4
2017-10-30T02:07:36.175Z,94.9
2017-10-30T02:08:37.777Z,95.0
2017-10-30T02:09:39.388Z,94.5
2017-10-30T02:10:40.998Z,94.2
2017-10-30T02:11:42.624Z,95.0
2017-10-30T02:12:44.217Z,95.3
2017-10-30T02:13:45.823Z,95.5
2017-10-30T02:14:47.432Z,95.6
2017-10-30T02:15:49.041Z,95.8
2017-10-30T02:16:50.649Z,95.3
2017-10-30T02:17:52.262Z,94.5
2017-10-30T02:18:53.873Z,95.5
2017-10-30T02:19:55.488Z,95.3
2017-10-30T02:20:57.097Z,94.3
2017-10-30T02:21:58.706Z,94.2
2017-10-30T02:23:00.316Z,94.2
2017-10-30T02:24:01.930Z,95.5
2017-10-30T02:25:03.539Z,95.2
2017-10-30T02:26:05.150Z,94.5
2017-10-30T02:27:06.762Z,94.3
2017-10-30T02:28:08.369Z,94.6
2017-10-30T02:29:09.979Z,94.4
2017-10-30T02:30:11.594Z,94.3
2017-10-30T02:31:13.210Z,94.3
2017-10-30T02:32:14.820Z,94.6
2017-10-30T02:33:16.433Z,94.3
2017-10-30T02:34:18.041Z,95.3
2017-10-30T02:35:19.656Z,95.4
2017-10-30T02:36:21.264Z,94.3
2017-10-30T02:37:22.872Z,95.4
2017-10-30T02:38:24.483Z,95.6
2017-10-30T02:39:26.093Z,94.3
2017-10-30T02:40:27.703Z,95.3
2017-10-30T02:41:29.318Z,95.4
2017-10-30T02:42:30.929Z,95.1
2017-10-30T02:43:32.537Z,94.6
2017-10-30T02:44:34.146Z,94.4
2017-10-30T02:45:35.758Z,95.5
2017-10-30T02:46:37.368Z,95.5
2017-10-30T02:47:38.978Z,95.4
2017-10-30T02:48:40.586Z,95.6
2017-10-30T02:49:42.192Z,95.6
2017-10-30T02:50:43.801Z,96.3
2017-10-30T02:51:45.411Z,96.0
2017-10-30T02:52:47.020Z,96.6
2017-10-30T02:53:48.631Z,97.2
2017-10-30T02:54:50.244Z,97.3
2017-10-30T02:55:51.856Z,97.2
2017-10-30T02:56:53.463Z,97.4
2017-10-30T02:57:55.071Z,97.3
2017-10-30T02:58:56.681Z,98.0
2017-10-30T02:59:58.288Z,97.2
2017-10-30T03:00:59.895Z,97.6
2017-10-30T03:02:01.509Z,97.9
2017-10-30T03:03:03.121Z,97.4
2017-10-30T03:04:04.725Z,97.4
2017-10-30T03:05:06.334Z,97.2
2017-10-30T03:06:07.943Z,98.2
2017-10-30T03:07:09.552Z,97.7
2017-10-30T03:08:11.166Z,98.1
2017-10-30T03:09:12.777Z,97.9
2017-10-30T03:10:14.398Z,97.4
2017-10-30T03:11:15.997Z,97.2
2017-10-30T03:12:17.604Z,97.0
2017-10-30T03:13:19.215Z,97.2
2017-10-30T03:14:20.831Z,97.1
2017-10-30T03:15:22.432Z,97.4
2017-10-30T03:16:24.041Z,97.0
2017-10-30T03:17:25.654Z,97.7
2017-10-30T03:18:27.262Z,97.1
2017-10-30T03:19:28.871Z,98.6
2017-10-30T03:20:30.477Z,98.0
2017-10-30T03:21:32.085Z,97.7
2017-10-30T03:22:33.702Z,98.6
2017-10-30T03:23:35.311Z,98.9
2017-10-30T03:24:36.927Z,99.2
2017-10-30T03:25:38.532Z,99.2
2017-10-30T03:26:40.141Z,98.6
2017-10-30T03:27:41.753Z,98.6
2017-10-30T03:28:43.359Z,99.1
2017-10-30T03:29:44.971Z,99.4
2017-10-30T03:30:46.587Z,99.2
2017-10-30T03:31:48.192Z,99.2
2017-10-30T03:32:49.801Z,98.3
2017-10-30T03:33:51.408Z,98.3
2017-10-30T03:34:53.019Z,99.1
2017-10-30T03:35:54.632Z,99.6
2017-10-30T03:36:56.246Z,98.4
2017-10-30T03:37:57.855Z,98.6
2017-10-30T03:38:59.468Z,98.8
2017-10-30T03:40:01.080Z,99.0
2017-10-30T03:41:02.688Z,99.2
2017-10-30T03:42:04.297Z,98.2
2017-10-30T03:43:05.907Z,97.4
2017-10-30T03:44:07.517Z,98.0
2017-10-30T03:45:09.128Z,96.9
2017-10-30T03:46:10.745Z,97.8
2017-10-30T03:47:12.346Z,97.3
2017-10-30T03:48:13.959Z,97.0
2017-10-30T03:49:15.565Z,97.5
2017-10-30T03:50:17.176Z,97.9
2017-10-30T03:51:18.802Z,97.0
2017-10-30T03:52:20.411Z,97.6
2017-10-30T03:53:22.023Z,98.2
2017-10-30T03:54:23.630Z,98.3
2017-10-30T03:55:25.239Z,98.2
2017-10-30T03:56:26.846Z,97.6
2017-10-30T03:57:28.456Z,97.7
2017-10-30T03:58:30.065Z,97.2
2017-10-30T03:59:31.678Z,96.8
2017-10-30T04:00:33.290Z,97.0
2017-10-30T04:01:34.898Z,96.9
2017-10-30T04:02:36.510Z,96.8
2017-10-30T04:03:38.119Z,96.7
2017-10-30T04:04:39.728Z,96.6
2017-10-30T04:05:41.339Z,97.1
2017-10-30T04:06:42.947Z,97.2
2017-10-30T04:07:44.559Z,96.8
2017-10-30T04:08:46.168Z,96.5
2017-10-30T04:09:47.776Z,95.4
2017-10-30T04:10:49.394Z,95.6
2017-10-30T04:11:51.006Z,96.1
2017-10-30T04:12:52.617Z,96.3
2017-10-30T04:13:54.227Z,96.7
2017-10-30T04:14:55.837Z,95.9
2017-10-30T04:15:57.443Z,96.1
2017-10-30T04:16:59.053Z,95.6
2017-10-30T04:18:00.666Z,96.8
2017-10-30T04:19:02.278Z,96.8
2017-10-30T04:20:03.888Z,96.3
2017-10-30T04:21:05.500Z,96.3
2017-10-30T04:22:07.109Z,96.5
2017-10-30T04:23:08.719Z,95.8
2017-10-30T04:24:10.331Z,96.6
2017-10-30T04:25:11.942Z,97.4
2017-10-30T04:26:13.555Z,96.6
2017-10-30T04:27:15.166Z,97.8
2017-10-30T04:28:16.775Z,97.9
2017-10-30T04:29:18.385Z,97.4
2017-10-30T04:30:19.992Z,97.9
2017-10-30T04:31:21.600Z,97.2
2017-10-30T04:32:23.220Z,98.0
2017-10-30T04:33:24.818Z,96.6
2017-10-30T04:34:26.431Z,97.4
2017-10-30T04:35:28.040Z,97.1
2017-10-30T04:36:29.661Z,96.6
2017-10-30T04:37:31.262Z,96.9
2017-10-30T04:38:32.868Z,96.9
2017-10-30T04:39:34.478Z,96.6
2017-10-30T04:40:36.087Z,98.0
2017-10-30T04:41:37.699Z,99.4
2017-10-30T04:42:39.310Z,98.8
2017-10-30T04:43:40.921Z,97.9
2017-10-30T04:44:42.528Z,98.1
2017-10-30T04:45:44.139Z,97.9
2017-10-30T04:46:45.750Z,97.2
2017-10-30T04:47:47.362Z,98.0
2017-10-30T04:48:48.974Z,97.6
2017-10-30T04:49:50.584Z,97.9
2017-10-30T04:50:52.203Z,97.9
2017-10-30T04:51:53.810Z,97.9
2017-10-30T04:52:55.418Z,97.4
2017-10-30T04:53:57.026Z,97.4
2017-10-30T04:54:58.633Z,97.3
2017-10-30T04:56:00.244Z,97.9
2017-10-30T04:57:01.854Z,97.9
2017-10-30T04:58:03.466Z,98.1
2017-10-30T04:59:05.075Z,97.0
2017-10-30T05:00:06.687Z,97.0
2017-10-30T05:01:08.296Z,97.3
2017-10-30T05:02:09.906Z,97.0
2017-10-30T05:03:11.519Z,97.0
2017-10-30T05:04:13.128Z,97.0
2017-10-30T05:05:14.741Z,97.2
2017-10-30T05:06:16.346Z,96.9
2017-10-30T05:07:17.960Z,96.5
2017-10-30T05:08:19.569Z,96.3
2017-10-30T05:09:21.179Z,96.3
2017-10-30T05:10:22.809Z,96.8
2017-10-30T05:11:24.421Z,96.6
2017-10-30T05:12:26.027Z,96.1
2017-10-30T05:13:27.636Z,96.2
2017-10-30T05:14:29.241Z,96.3
2017-10-30T05:15:30.854Z,97.0
2017-10-30T05:16:32.464Z,97.2
2017-10-30T05:17:34.075Z,96.6
2017-10-30T05:18:35.688Z,96.5
2017-10-30T05:19:37.300Z,96.6
2017-10-30T05:20:38.917Z,96.9
2017-10-30T05:21:40.517Z,97.1
2017-10-30T05:22:42.127Z,96.6
2017-10-30T05:23:43.736Z,97.4
2017-10-30T05:24:45.347Z,98.0
2017-10-30T05:25:46.954Z,97.2
2017-10-30T05:26:48.566Z,97.1
2017-10-30T05:27:50.176Z,96.7
2017-10-30T05:28:51.785Z,96.8
2017-10-30T05:29:53.394Z,97.2
2017-10-30T05:30:55.003Z,96.5
2017-10-30T05:31:56.618Z,96.7
2017-10-30T05:32:58.227Z,97.0
2017-10-30T05:33:59.837Z,96.9
2017-10-30T05:35:01.446Z,96.7
2017-10-30T05:36:03.066Z,96.6
2017-10-30T05:37:04.675Z,97.1
2017-10-30T05:38:06.285Z,97.0
2017-10-30T05:39:07.892Z,96.9
2017-10-30T05:40:09.502Z,96.5
2017-10-30T05:41:11.112Z,96.5
2017-10-30T05:42:12.719Z,95.8
2017-10-30T05:43:14.335Z,96.8
2017-10-30T05:44:15.943Z,96.2
2017-10-30T05:45:17.554Z,96.3
2017-10-30T05:46:19.165Z,97.1
2017-10-30T05:47:20.774Z,97.2
2017-10-30T05:48:22.385Z,96.8
2017-10-30T05:49:23.989Z,97.1
2017-10-30T05:50:25.608Z,96.6
2017-10-30T05:51:27.236Z,96.5
2017-10-30T05:52:28.846Z,96.4
2017-10-30T05:53:30.457Z,96.9
2017-10-30T05:54:32.070Z,96.8
2017-10-30T05:55:33.696Z,97.2
2017-10-30T05:56:35.301Z,96.9
2017-10-30T05:57:36.911Z,97.4
2017-10-30T05:58:38.524Z,97.8
2017-10-30T05:59:41.600Z,97.9
2017-10-30T06:00:43.231Z,97.9
2017-10-30T06:01:44.844Z,97.1
2017-10-30T06:02:46.453Z,96.9
2017-10-30T06:03:48.068Z,96.9
2017-10-30T06:04:49.674Z,98.1
2017-10-30T06:05:51.282Z,98.1
2017-10-30T06:06:52.895Z,97.8
2017-10-30T06:07:54.503Z,97.4
2017-10-30T06:08:56.116Z,97.0
2017-10-30T06:09:57.722Z,96.8
2017-10-30T06:10:59.332Z,96.8
2017-10-30T06:12:00.943Z,96.6
2017-10-30T06:13:02.554Z,96.6
2017-10-30T06:14:04.169Z,96.3
2017-10-30T06:15:05.778Z,96.4
2017-10-30T06:16:07.384Z,96.2
2017-10-30T06:17:08.998Z,96.9
2017-10-30T06:18:10.609Z,95.8
2017-10-30T06:19:12.217Z,96.2
2017-10-30T06:20:13.834Z,95.9
2017-10-30T06:21:15.447Z,100.0
2017-10-30T06:22:17.060Z,99.8
2017-10-30T06:23:18.672Z,97.0
2017-10-30T06:24:20.297Z,96.9
2017-10-30T06:25:21.908Z,96.6
2017-10-30T06:26:23.515Z,96.7
2017-10-30T06:27:25.127Z,96.6
2017-10-30T06:28:26.740Z,97.5
2017-10-30T06:29:28.350Z,96.8
2017-10-30T06:30:29.964Z,97.3
2017-10-30T06:31:31.578Z,96.8
2017-10-30T06:32:33.189Z,96.9
2017-10-30T06:33:34.802Z,96.8
2017-10-30T06:34:36.412Z,96.3
2017-10-30T06:35:38.042Z,96.5
2017-10-30T06:36:39.639Z,95.9
2017-10-30T06:37:41.253Z,96.6
2017-10-30T06:38:42.869Z,96.2
2017-10-30T06:39:44.484Z,95.3
2017-10-30T06:40:46.090Z,96.3
2017-10-30T06:41:47.699Z,96.1
2017-10-30T06:42:49.313Z,95.8
2017-10-30T06:43:50.945Z,95.6
2017-10-30T06:44:52.556Z,95.7
2017-10-30T06:45:54.168Z,95.6
2017-10-30T06:46:55.779Z,95.6
2017-10-30T06:47:57.392Z,95.8
2017-10-30T06:48:59.004Z,96.3
2017-10-30T06:50:00.614Z,96.4
2017-10-30T06:51:02.230Z,96.6
2017-10-30T06:52:03.841Z,96.6
2017-10-30T06:53:05.456Z,97.1
2017-10-30T06:54:07.068Z,96.9
2017-10-30T06:55:08.681Z,96.9
2017-10-30T06:56:10.296Z,96.5
2017-10-30T06:57:11.912Z,95.9
2017-10-30T06:58:13.532Z,96.4
2017-10-30T06:59:15.143Z,96.5
2017-10-30T07:00:16.758Z,96.3
2017-10-30T07:01:18.374Z,96.1
2017-10-30T07:02:19.982Z,95.9
2017-10-30T07:03:21.597Z,96.2
2017-10-30T07:04:23.211Z,96.5
2017-10-30T07:05:24.824Z,96.2
2017-10-30T07:06:26.437Z,95.3
2017-10-30T07:07:28.056Z,95.9
2017-10-30T07:08:29.663Z,96.3
2017-10-30T07:09:31.285Z,95.7
2017-10-30T07:10:32.895Z,95.6
2017-10-30T07:11:34.508Z,95.1
2017-10-30T07:12:36.120Z,94.5
2017-10-30T07:13:37.735Z,94.0
2017-10-30T07:14:39.349Z,93.5
2017-10-30T07:15:40.959Z,94.4
2017-10-30T07:16:42.577Z,94.3
2017-10-30T07:17:44.192Z,95.5
2017-10-30T07:18:45.806Z,94.0
2017-10-30T07:19:47.425Z,94.0
2017-10-30T07:20:49.036Z,93.6
2017-10-30T07:21:50.652Z,93.5
2017-10-30T07:22:52.266Z,93.7
2017-10-30T07:23:53.882Z,93.9
2017-10-30T07:24:55.500Z,93.4
2017-10-30T07:25:57.115Z,93.7
2017-10-30T07:26:58.737Z,93.5
2017-10-30T07:28:00.345Z,92.6
2017-10-30T07:29:01.964Z,92.2
2017-10-30T07:30:03.578Z,92.2
2017-10-30T07:31:05.196Z,92.2
2017-10-30T07:32:06.808Z,91.2
2017-10-30T07:33:08.439Z,90.6
2017-10-30T07:34:10.054Z,89.7
2017-10-30T07:35:11.670Z,90.4
2017-10-30T07:36:13.286Z,91.5
2017-10-30T07:37:14.898Z,91.6
2017-10-30T07:38:16.513Z,92.2
2017-10-30T07:39:18.128Z,91.4
2017-10-30T07:40:19.743Z,91.6
2017-10-30T07:41:21.370Z,91.6
2017-10-30T07:42:22.987Z,91.7
2017-10-30T07:43:24.607Z,91.3
2017-10-30T07:44:26.221Z,91.6
2017-10-30T07:45:27.837Z,91.1
2017-10-30T07:46:29.451Z,92.0
2017-10-30T07:47:31.068Z,91.0
2017-10-30T07:48:32.685Z,90.5
2017-10-30T07:49:34.305Z,90.4
2017-10-30T07:50:35.952Z,89.7
2017-10-30T07:51:37.561Z,90.4
2017-10-30T07:52:39.176Z,90.7
2017-10-30T07:53:40.798Z,91.6
2017-10-30T07:54:42.414Z,92.5
2017-10-30T07:55:44.029Z,92.6
2017-10-30T07:56:45.645Z,92.7
2017-10-30T07:57:47.264Z,92.2
2017-10-30T07:58:48.878Z,92.8
2017-10-30T07:59:50.497Z,93.2
2017-10-30T08:00:52.107Z,93.6
2017-10-30T08:01:53.725Z,93.4
2017-10-30T08:02:55.341Z,93.7
2017-10-30T08:03:56.959Z,94.0
2017-10-30T08:04:58.583Z,93.9
2017-10-30T08:06:00.193Z,93.4
2017-10-30T08:07:01.814Z,91.0
2017-10-30T08:08:03.430Z,91.2
2017-10-30T08:09:05.049Z,90.6
2017-10-30T08:10:06.680Z,90.8
2017-10-30T08:11:08.298Z,89.9
2017-10-30T08:12:09.916Z,88.9
2017-10-30T08:13:11.530Z,88.1
2017-10-30T08:14:13.148Z,87.7
2017-10-30T08:15:14.765Z,87.9
2017-10-30T08:16:16.381Z,87.8
2017-10-30T08:17:17.998Z,86.4
2017-10-30T08:18:22.998Z,87.0
2017-10-30T08:19:24.619Z,85.8
2017-10-30T08:20:26.238Z,84.4
2017-10-30T08:21:27.851Z,84.1
2017-10-30T08:22:29.478Z,82.9
2017-10-30T08:23:31.088Z,83.0
2017-10-30T08:24:32.706Z,82.8
2017-10-30T08:25:34.329Z,81.9
2017-10-30T08:26:35.944Z,82.2
2017-10-30T08:27:37.564Z,81.3
2017-10-30T08:28:39.181Z,81.6
2017-10-30T08:29:40.799Z,81.1
2017-10-30T08:30:42.416Z,81.9
2017-10-30T08:31:44.036Z,81.9
2017-10-30T08:32:45.654Z,81.6
2017-10-30T08:33:47.273Z,80.3
2017-10-30T08:34:48.891Z,81.2
2017-10-30T08:35:50.510Z,80.1
2017-10-30T08:36:52.128Z,80.0
2017-10-30T08:37:53.753Z,80.2
2017-10-30T08:38:55.374Z,78.6
2017-10-30T08:39:56.992Z,77.7
2017-10-30T08:40:58.614Z,78.8
2017-10-30T08:42:00.235Z,80.8
2017-10-30T08:43:01.852Z,79.3
2017-10-30T08:44:03.473Z,78.9
2017-10-30T08:45:05.089Z,79.0
2017-10-30T08:46:06.713Z,78.9
2017-10-30T08:47:08.333Z,78.9
2017-10-30T08:48:09.954Z,77.8
2017-10-30T08:49:11.572Z,77.6
2017-10-30T08:50:13.195Z,78.0
2017-10-30T08:51:14.814Z,77.5
2017-10-30T08:52:16.434Z,77.5
2017-10-30T08:53:18.054Z,78.3
2017-10-30T08:54:19.678Z,78.5
2017-10-30T08:55:21.299Z,78.9
2017-10-30T08:56:22.916Z,77.7
2017-10-30T08:57:24.536Z,78.8
2017-10-30T08:58:26.158Z,79.6
2017-10-30T08:59:27.779Z,78.7
2017-10-30T09:00:29.398Z,77.6
2017-10-30T09:01:31.022Z,78.3
2017-10-30T09:02:32.644Z,78.4
2017-10-30T09:03:34.267Z,78.7
2017-10-30T09:04:35.885Z,78.4
2017-10-30T09:05:37.512Z,79.4
2017-10-30T09:06:39.134Z,79.3
2017-10-30T09:07:40.752Z,77.4
2017-10-30T09:08:42.374Z,77.1
2017-10-30T09:09:43.992Z,76.8
2017-10-30T09:10:45.616Z,77.5
2017-10-30T09:11:47.236Z,76.9
2017-10-30T09:12:48.856Z,77.1
2017-10-30T09:13:50.477Z,76.2
2017-10-30T09:14:52.101Z,75.9
2017-10-30T09:15:53.721Z,74.6
2017-10-30T09:16:55.345Z,74.9
2017-10-30T09:17:56.962Z,77.7
2017-10-30T09:18:58.584Z,76.1
2017-10-30T09:20:00.202Z,78.8
2017-10-30T09:21:01.822Z,78.0
2017-10-30T09:22:03.445Z,78.3
2017-10-30T09:23:05.067Z,79.2
2017-10-30T09:24:06.688Z,78.0
2017-10-30T09:25:08.312Z,76.7
2017-10-30T09:26:09.928Z,77.4
2017-10-30T09:27:11.546Z,77.9
2017-10-30T09:28:13.167Z,77.3
2017-10-30T09:29:14.789Z,77.6
2017-10-30T09:30:16.411Z,77.5
2017-10-30T09:31:18.033Z,77.3
2017-10-30T09:32:19.652Z,78.5
2017-10-30T09:33:21.273Z,78.6
2017-10-30T09:34:22.891Z,77.8
2017-10-30T09:35:24.514Z,78.1
2017-10-30T09:36:26.134Z,77.2
2017-10-30T09:37:27.750Z,77.8
2017-10-30T09:38:29.371Z,77.5
2017-10-30T09:39:30.988Z,77.9
2017-10-30T09:40:32.610Z,76.3
2017-10-30T09:41:34.230Z,78.2
2017-10-30T09:42:35.850Z,78.5
2017-10-30T09:43:37.484Z,77.4
2017-10-30T09:44:39.091Z,77.0
2017-10-30T09:45:40.714Z,76.5
2017-10-30T09:46:42.330Z,77.6
2017-10-30T09:47:43.953Z,76.7
2017-10-30T09:48:45.572Z,75.0
2017-10-30T09:49:47.196Z,74.0
2017-10-30T09:50:48.816Z,74.5
2017-10-30T09:51:50.436Z,74.2
2017-10-30T09:52:52.060Z,73.2
2017-10-30T09:53:53.679Z,74.2
2017-10-30T09:54:55.295Z,71.9
2017-10-30T09:55:56.913Z,71.9
2017-10-30T09:56:58.540Z,73.6
2017-10-30T09:58:00.156Z,74.2
2017-10-30T09:59:01.778Z,75.5
2017-10-30T10:00:03.398Z,75.8
2017-10-30T10:01:05.020Z,76.6
2017-10-30T10:02:06.640Z,73.6
2017-10-30T10:03:08.260Z,72.9
2017-10-30T10:04:09.882Z,72.3
2017-10-30T10:05:11.505Z,71.3
2017-10-30T10:06:13.135Z,71.8
2017-10-30T10:07:14.745Z,72.3
2017-10-30T10:08:16.364Z,71.6
2017-10-30T10:09:17.983Z,71.3
2017-10-30T10:10:19.603Z,71.0
2017-10-30T10:11:21.224Z,72.8
2017-10-30T10:12:22.845Z,72.5
2017-10-30T10:13:24.473Z,72.4
2017-10-30T10:14:26.093Z,72.0
2017-10-30T10:15:27.712Z,71.4
2017-10-30T10:16:29.334Z,72.8
2017-10-30T10:17:30.948Z,71.2
2017-10-30T10:18:32.569Z,71.1
2017-10-30T10:19:34.197Z,70.8
2017-10-30T10:20:35.809Z,71.2
2017-10-30T10:21:37.429Z,69.6
2017-10-30T10:22:39.049Z,68.8
2017-10-30T10:23:40.670Z,70.1
2017-10-30T10:24:42.290Z,70.2
2017-10-30T10:25:43.910Z,69.0
2017-10-30T10:26:45.533Z,68.2
2017-10-30T10:27:47.151Z,70.9
2017-10-30T10:28:48.772Z,70.8
2017-10-30T10:29:50.392Z,70.2
2017-10-30T10:30:52.018Z,70.1
2017-10-30T10:31:53.636Z,70.6
2017-10-30T10:32:55.265Z,71.6
2017-10-30T10:33:56.919Z,70.7
2017-10-30T10:34:58.519Z,69.5
2017-10-30T10:36:00.148Z,68.1
2017-10-30T10:37:01.757Z,66.1
2017-10-30T10:38:03.504Z,66.4
2017-10-30T10:39:05.147Z,66.4
2017-10-30T10:40:06.776Z,67.6
2017-10-30T10:41:08.407Z,66.8
2017-10-30T10:42:10.022Z,66.0
2017-10-30T10:43:11.640Z,65.6
2017-10-30T10:44:13.260Z,65.6
2017-10-30T10:45:14.883Z,65.3
2017-10-30T10:46:16.503Z,66.9
2017-10-30T10:47:18.123Z,65.9
2017-10-30T10:48:19.752Z,65.0
2017-10-30T10:49:21.384Z,65.5
2017-10-30T10:50:23.007Z,66.0
2017-10-30T10:51:24.624Z,67.2
2017-10-30T10:52:26.245Z,67.6
2017-10-30T10:53:27.866Z,67.5
2017-10-30T10:54:29.496Z,66.1
2017-10-30T10:55:31.112Z,66.7
2017-10-30T10:56:32.740Z,65.0
2017-10-30T10:57:34.359Z,63.8
2017-10-30T10:58:35.979Z,60.8
2017-10-30T10:59:37.604Z,61.4
2017-10-30T11:00:39.225Z,60.7
2017-10-30T11:01:40.848Z,60.2
2017-10-30T11:02:42.473Z,58.4
2017-10-30T11:03:44.096Z,56.5
2017-10-30T11:04:45.721Z,53.9
2017-10-30T11:05:47.357Z,53.4
2017-10-30T11:06:48.978Z,52.9
2017-10-30T11:07:50.603Z,50.4
2017-10-30T11:08:52.236Z,49.0
2017-10-30T11:09:53.857Z,48.8
2017-10-30T11:10:55.480Z,49.1
2017-10-30T11:11:57.111Z,49.7
2017-10-30T11:12:58.731Z,51.0
2017-10-30T11:14:00.358Z,53.8
2017-10-30T11:15:01.978Z,55.0
2017-10-30T11:16:03.602Z,59.1
2017-10-30T11:17:05.223Z,61.2
2017-10-30T11:18:06.846Z,63.3
2017-10-30T11:19:08.464Z,65.0
2017-10-30T11:20:10.086Z,66.5
2017-10-30T11:21:11.710Z,66.9
2017-10-30T11:22:13.333Z,67.6
2017-10-30T11:23:14.947Z,68.4
2017-10-30T11:24:16.567Z,68.4
2017-10-30T11:25:18.187Z,68.8
2017-10-30T11:26:19.810Z,70.4
2017-10-30T11:27:21.427Z,69.1
2017-10-30T11:28:23.048Z,69.7
2017-10-30T11:29:24.677Z,70.3
2017-10-30T11:30:26.293Z,70.1
2017-10-30T11:31:27.916Z,65.2
2017-10-30T11:32:29.538Z,56.8
2017-10-30T11:33:31.158Z,50.6
2017-10-30T11:34:32.795Z,46.5
2017-10-30T11:35:34.406Z,44.3
2017-10-30T11:36:36.024Z,42.0
2017-10-30T11:37:37.644Z,41.5
2017-10-30T11:38:39.270Z,42.2
2017-10-30T11:39:40.895Z,44.4
2017-10-30T11:40:42.516Z,47.1
2017-10-30T11:41:44.137Z,47.4
2017-10-30T11:42:45.767Z,46.6
2017-10-30T11:43:47.392Z,46.5
2017-10-30T11:44:49.016Z,49.5
2017-10-30T11:45:50.640Z,51.7
2017-10-30T11:46:52.268Z,54.0
2017-10-30T11:47:53.880Z,57.2
2017-10-30T11:48:55.496Z,59.3
2017-10-30T11:49:57.123Z,60.2
2017-10-30T11:50:58.736Z,62.8
2017-10-30T11:52:00.354Z,64.5
2017-10-30T11:53:01.974Z,64.9
2017-10-30T11:54:03.609Z,65.3
2017-10-30T11:55:05.229Z,66.3
2017-10-30T11:56:06.847Z,68.0
2017-10-30T11:57:08.463Z,69.1
2017-10-30T11:58:10.088Z,67.5
2017-10-30T11:59:11.728Z,67.9
2017-10-30T12:00:13.325Z,67.5
2017-10-30T12:01:14.943Z,66.9
2017-10-30T12:02:16.570Z,67.8
2017-10-30T12:03:18.184Z,67.3
2017-10-30T12:04:19.806Z,66.2
2017-10-30T12:05:21.427Z,64.1
2017-10-30T12:06:23.046Z,63.9
2017-10-30T12:07:24.666Z,64.0
2017-10-30T12:08:26.290Z,64.0
2017-10-30T12:09:27.910Z,66.0
2017-10-30T12:10:29.529Z,64.1
2017-10-30T12:11:31.145Z,59.6
2017-10-30T12:12:32.766Z,60.2
2017-10-30T12:13:34.390Z,57.4
2017-10-30T12:14:36.014Z,54.1
2017-10-30T12:15:37.630Z,55.3
2017-10-30T12:16:39.249Z,58.1
2017-10-30T12:17:40.867Z,59.3
2017-10-30T12:18:42.488Z,61.3
2017-10-30T12:19:44.105Z,61.0
2017-10-30T12:20:45.729Z,62.7
2017-10-30T12:21:47.355Z,58.7
2017-10-30T12:22:48.973Z,52.3
2017-10-30T12:23:50.596Z,49.2
2017-10-30T12:24:52.219Z,49.1
2017-10-30T12:25:53.843Z,51.5
2017-10-30T12:26:55.464Z,51.6
2017-10-30T12:27:57.088Z,53.2
2017-10-30T12:28:58.707Z,53.2
2017-10-30T12:30:00.329Z,54.3
2017-10-30T12:31:01.958Z,55.0
2017-10-30T12:32:03.575Z,60.4
2017-10-30T12:33:05.194Z,61.0
2017-10-30T12:34:06.813Z,63.6
2017-10-30T12:35:08.436Z,64.5
2017-10-30T12:36:10.053Z,66.2
2017-10-30T12:37:11.675Z,68.1
2017-10-30T12:38:13.294Z,70.3
2017-10-30T12:39:14.914Z,72.9
2017-10-30T12:40:16.532Z,74.3
2017-10-30T12:41:18.153Z,75.9
2017-10-30T12:42:19.773Z,76.6
2017-10-30T12:43:21.393Z,76.8
2017-10-30T12:44:23.015Z,77.5
2017-10-30T12:45:24.635Z,78.7
2017-10-30T12:46:26.252Z,79.8
2017-10-30T12:47:27.870Z,77.9
2017-10-30T12:48:29.488Z,75.1
2017-10-30T12:49:31.113Z,75.5
2017-10-30T12:50:32.733Z,75.4
2017-10-30T12:51:34.356Z,75.6
2017-10-30T12:52:35.971Z,76.2
2017-10-30T12:53:37.590Z,76.3
2017-10-30T12:54:39.210Z,77.6
2017-10-30T12:55:40.829Z,75.8
2017-10-30T12:56:42.449Z,69.6
2017-10-30T12:57:44.070Z,60.9
2017-10-30T12:58:45.692Z,55.1
2017-10-30T12:59:47.313Z,51.1
2017-10-30T13:00:48.941Z,47.4
2017-10-30T13:01:50.572Z,49.8
2017-10-30T13:02:52.191Z,52.1
2017-10-30T13:03:53.814Z,54.8
2017-10-30T13:04:55.435Z,58.3
2017-10-30T13:05:57.057Z,60.1
2017-10-30T13:06:58.679Z,60.9
2017-10-30T13:08:00.297Z,60.7
2017-10-30T13:09:01.943Z,61.7
2017-10-30T13:10:03.561Z,60.8
2017-10-30T13:11:05.189Z,63.3
2017-10-30T13:12:06.809Z,66.2
2017-10-30T13:13:08.432Z,67.9
2017-10-30T13:14:10.053Z,66.4
2017-10-30T13:15:11.673Z,59.4
2017-10-30T13:16:13.291Z,57.4
2017-10-30T13:17:14.921Z,55.0
2017-10-30T13:18:16.548Z,53.1
2017-10-30T13:19:18.162Z,54.4
2017-10-30T13:20:19.784Z,56.5
2017-10-30T13:21:21.405Z,57.3
2017-10-30T13:22:23.036Z,58.9
2017-10-30T13:23:24.653Z,59.9
2017-10-30T13:24:26.266Z,60.5
2017-10-30T13:25:27.889Z,62.0
2017-10-30T13:26:29.509Z,64.3
2017-10-30T13:27:31.129Z,64.1
2017-10-30T13:28:32.753Z,60.6
2017-10-30T13:29:34.374Z,54.3
2017-10-30T13:30:35.996Z,51.1
2017-10-30T13:31:37.616Z,48.6
2017-10-30T13:32:39.240Z,46.9
2017-10-30T13:33:40.870Z,47.0
2017-10-30T13:34:42.484Z,50.1
2017-10-30T13:35:44.110Z,54.9
2017-10-30T13:36:45.726Z,56.5
2017-10-30T13:37:47.347Z,59.7
2017-10-30T13:38:48.964Z,61.0
2017-10-30T13:39:50.585Z,61.5